sensor_id;sensor_type;location;lat;lon;timestamp;temperature;humidity
3996;DHT22;2012;49.794;9.722;2023-03-01T00:02:10;0.10;99.90
3996;DHT22;2012;49.794;9.722;2023-03-01T00:04:37;0.00;99.90
3996;DHT22;2012;49.794;9.722;2023-03-01T00:07:04;0.00;99.90
3996;DHT22;2012;49.794;9.722;2023-03-01T00:09:30;0.00;99.90
3996;DHT22;2012;49.794;9.722;2023-03-01T00:11:57;-0.20;99.90
3996;DHT22;2012;49.794;9.722;2023-03-01T00:14:24;-0.10;99.90
3996;DHT22;2012;49.794;9.722;2023-03-01T00:16:50;-0.10;99.90
3996;DHT22;2012;49.794;9.722;2023-03-01T00:19:19;-0.10;99.90
3996;DHT22;2012;49.794;9.722;2023-03-01T00:21:46;-0.10;99.90
3996;DHT22;2012;49.794;9.722;2023-03-01T00:24:13;-0.40;99.90
3996;DHT22;2012;49.794;9.722;2023-03-01T00:26:40;-0.20;99.90
3996;DHT22;2012;49.794;9.722;2023-03-01T00:29:06;-0.20;99.90
3996;DHT22;2012;49.794;9.722;2023-03-01T00:31:33;-0.20;99.90
3996;DHT22;2012;49.794;9.722;2023-03-01T00:34:04;-0.30;99.90
3996;DHT22;2012;49.794;9.722;2023-03-01T00:36:36;-0.20;99.90
3996;DHT22;2012;49.794;9.722;2023-03-01T00:39:05;-0.20;99.90
3996;DHT22;2012;49.794;9.722;2023-03-01T00:41:31;-0.30;99.90
3996;DHT22;2012;49.794;9.722;2023-03-01T00:44:00;-0.10;99.90
3996;DHT22;2012;49.794;9.722;2023-03-01T00:46:27;-0.10;99.90
3996;DHT22;2012;49.794;9.722;2023-03-01T00:48:57;-0.20;99.90
3996;DHT22;2012;49.794;9.722;2023-03-01T00:51:27;-0.40;99.90
3996;DHT22;2012;49.794;9.722;2023-03-01T00:53:57;-0.40;99.90
3996;DHT22;2012;49.794;9.722;2023-03-01T00:56:24;-0.20;99.90
3996;DHT22;2012;49.794;9.722;2023-03-01T00:58:52;-0.20;99.90
3996;DHT22;2012;49.794;9.722;2023-03-01T01:01:22;-0.30;99.90
3996;DHT22;2012;49.794;9.722;2023-03-01T01:04:04;-0.30;99.90
3996;DHT22;2012;49.794;9.722;2023-03-01T01:06:38;-0.30;99.90
3996;DHT22;2012;49.794;9.722;2023-03-01T01:09:06;-0.40;99.90
3996;DHT22;2012;49.794;9.722;2023-03-01T01:11:33;-0.40;99.90
3996;DHT22;2012;49.794;9.722;2023-03-01T01:14:02;-0.50;99.90
3996;DHT22;2012;49.794;9.722;2023-03-01T01:16:29;-0.50;99.90
3996;DHT22;2012;49.794;9.722;2023-03-01T01:18:56;-0.60;99.90
3996;DHT22;2012;49.794;9.722;2023-03-01T01:21:24;-0.50;99.90
3996;DHT22;2012;49.794;9.722;2023-03-01T01:23:51;-0.40;99.90
3996;DHT22;2012;49.794;9.722;2023-03-01T01:26:28;-0.40;99.90
3996;DHT22;2012;49.794;9.722;2023-03-01T01:28:55;-0.50;99.90
3996;DHT22;2012;49.794;9.722;2023-03-01T01:31:23;-0.60;99.90
3996;DHT22;2012;49.794;9.722;2023-03-01T01:33:51;-0.50;99.90
3996;DHT22;2012;49.794;9.722;2023-03-01T01:36:18;-0.60;99.90
3996;DHT22;2012;49.794;9.722;2023-03-01T01:38:45;-0.60;99.90
3996;DHT22;2012;49.794;9.722;2023-03-01T01:41:13;-0.80;99.90
3996;DHT22;2012;49.794;9.722;2023-03-01T01:44:11;-0.80;99.90
3996;DHT22;2012;49.794;9.722;2023-03-01T01:49:38;-0.70;99.90
3996;DHT22;2012;49.794;9.722;2023-03-01T01:57:20;-0.60;99.90
3996;DHT22;2012;49.794;9.722;2023-03-01T01:59:51;-0.80;99.90
3996;DHT22;2012;49.794;9.722;2023-03-01T02:02:19;-0.80;99.90
3996;DHT22;2012;49.794;9.722;2023-03-01T02:04:48;-0.70;99.90
3996;DHT22;2012;49.794;9.722;2023-03-01T02:07:19;-0.80;99.90
3996;DHT22;2012;49.794;9.722;2023-03-01T02:09:49;-0.70;99.90
3996;DHT22;2012;49.794;9.722;2023-03-01T02:12:18;-0.70;99.90
3996;DHT22;2012;49.794;9.722;2023-03-01T02:14:45;-0.70;99.90
3996;DHT22;2012;49.794;9.722;2023-03-01T02:17:14;-0.80;99.90
3996;DHT22;2012;49.794;9.722;2023-03-01T02:22:35;-0.90;99.90
3996;DHT22;2012;49.794;9.722;2023-03-01T02:27:53;-0.90;99.90
3996;DHT22;2012;49.794;9.722;2023-03-01T02:30:24;-0.90;99.90
3996;DHT22;2012;49.794;9.722;2023-03-01T02:32:52;-1.00;99.90
3996;DHT22;2012;49.794;9.722;2023-03-01T02:35:21;-0.90;99.90
3996;DHT22;2012;49.794;9.722;2023-03-01T02:37:48;-1.00;99.90
3996;DHT22;2012;49.794;9.722;2023-03-01T02:42:55;-1.10;99.90
3996;DHT22;2012;49.794;9.722;2023-03-01T02:45:22;-1.10;99.90
3996;DHT22;2012;49.794;9.722;2023-03-01T02:47:50;-1.20;99.90
3996;DHT22;2012;49.794;9.722;2023-03-01T02:51:22;-1.10;99.90
3996;DHT22;2012;49.794;9.722;2023-03-01T02:54:08;-1.10;99.90
3996;DHT22;2012;49.794;9.722;2023-03-01T02:56:25;-1.20;99.90
3996;DHT22;2012;49.794;9.722;2023-03-01T02:58:52;-1.30;99.90
3996;DHT22;2012;49.794;9.722;2023-03-01T03:01:20;-1.40;99.90
3996;DHT22;2012;49.794;9.722;2023-03-01T03:03:47;-1.30;99.90
3996;DHT22;2012;49.794;9.722;2023-03-01T03:06:13;-1.30;99.90
3996;DHT22;2012;49.794;9.722;2023-03-01T03:08:40;-1.30;99.90
3996;DHT22;2012;49.794;9.722;2023-03-01T03:11:07;-1.20;99.90
3996;DHT22;2012;49.794;9.722;2023-03-01T03:13:34;-1.10;99.90
3996;DHT22;2012;49.794;9.722;2023-03-01T03:16:02;-1.20;99.90
3996;DHT22;2012;49.794;9.722;2023-03-01T03:18:29;-1.20;99.90
3996;DHT22;2012;49.794;9.722;2023-03-01T03:20:55;-1.20;99.90
3996;DHT22;2012;49.794;9.722;2023-03-01T03:23:22;-1.20;99.90
3996;DHT22;2012;49.794;9.722;2023-03-01T03:25:50;-1.20;99.90
3996;DHT22;2012;49.794;9.722;2023-03-01T03:28:17;-1.30;99.90
3996;DHT22;2012;49.794;9.722;2023-03-01T03:30:44;-1.20;99.90
3996;DHT22;2012;49.794;9.722;2023-03-01T03:33:12;-1.30;99.90
3996;DHT22;2012;49.794;9.722;2023-03-01T03:35:47;-1.50;99.90
3996;DHT22;2012;49.794;9.722;2023-03-01T03:38:16;-1.40;99.90
3996;DHT22;2012;49.794;9.722;2023-03-01T03:40:48;-1.30;99.90
3996;DHT22;2012;49.794;9.722;2023-03-01T03:43:20;-1.40;99.90
3996;DHT22;2012;49.794;9.722;2023-03-01T03:45:49;-1.40;99.90
3996;DHT22;2012;49.794;9.722;2023-03-01T03:48:16;-1.40;99.90
3996;DHT22;2012;49.794;9.722;2023-03-01T03:50:49;-1.50;99.90
3996;DHT22;2012;49.794;9.722;2023-03-01T03:53:15;-1.50;99.90
3996;DHT22;2012;49.794;9.722;2023-03-01T03:55:43;-1.40;99.90
3996;DHT22;2012;49.794;9.722;2023-03-01T03:58:11;-1.50;99.90
3996;DHT22;2012;49.794;9.722;2023-03-01T04:00:42;-1.50;99.90
3996;DHT22;2012;49.794;9.722;2023-03-01T04:03:11;-1.50;99.90
3996;DHT22;2012;49.794;9.722;2023-03-01T04:05:39;-1.50;99.90
3996;DHT22;2012;49.794;9.722;2023-03-01T04:08:08;-1.40;99.90
3996;DHT22;2012;49.794;9.722;2023-03-01T04:10:40;-1.40;99.90
3996;DHT22;2012;49.794;9.722;2023-03-01T04:13:11;-1.40;99.90
3996;DHT22;2012;49.794;9.722;2023-03-01T04:15:38;-1.40;99.90
3996;DHT22;2012;49.794;9.722;2023-03-01T04:18:06;-1.50;99.90
3996;DHT22;2012;49.794;9.722;2023-03-01T04:20:34;-1.40;99.90
3996;DHT22;2012;49.794;9.722;2023-03-01T04:23:05;-1.50;99.90
3996;DHT22;2012;49.794;9.722;2023-03-01T04:28:25;-1.50;99.90
3996;DHT22;2012;49.794;9.722;2023-03-01T04:30:53;-1.40;99.90
3996;DHT22;2012;49.794;9.722;2023-03-01T04:33:20;-1.50;99.90
3996;DHT22;2012;49.794;9.722;2023-03-01T04:35:47;-1.50;99.90
3996;DHT22;2012;49.794;9.722;2023-03-01T04:38:17;-1.50;99.90
3996;DHT22;2012;49.794;9.722;2023-03-01T04:40:44;-1.50;99.90
3996;DHT22;2012;49.794;9.722;2023-03-01T04:43:11;-1.50;99.90
3996;DHT22;2012;49.794;9.722;2023-03-01T04:45:39;-1.50;99.90
3996;DHT22;2012;49.794;9.722;2023-03-01T04:48:06;-1.50;99.90
3996;DHT22;2012;49.794;9.722;2023-03-01T04:50:33;-1.60;99.90
3996;DHT22;2012;49.794;9.722;2023-03-01T04:53:01;-1.50;99.90
3996;DHT22;2012;49.794;9.722;2023-03-01T04:55:28;-1.60;99.90
3996;DHT22;2012;49.794;9.722;2023-03-01T04:57:55;-1.60;99.90
3996;DHT22;2012;49.794;9.722;2023-03-01T05:00:22;-1.50;99.90
3996;DHT22;2012;49.794;9.722;2023-03-01T05:03:00;-1.50;99.90
3996;DHT22;2012;49.794;9.722;2023-03-01T05:05:33;-1.50;99.90
3996;DHT22;2012;49.794;9.722;2023-03-01T05:08:02;-1.60;99.90
3996;DHT22;2012;49.794;9.722;2023-03-01T05:10:31;-1.60;99.90
3996;DHT22;2012;49.794;9.722;2023-03-01T05:12:59;-1.60;99.90
3996;DHT22;2012;49.794;9.722;2023-03-01T05:15:27;-1.60;99.90
3996;DHT22;2012;49.794;9.722;2023-03-01T05:17:55;-1.60;99.90
3996;DHT22;2012;49.794;9.722;2023-03-01T05:20:29;-1.60;99.90
3996;DHT22;2012;49.794;9.722;2023-03-01T05:22:58;-1.50;99.90
3996;DHT22;2012;49.794;9.722;2023-03-01T05:25:26;-1.50;99.90
3996;DHT22;2012;49.794;9.722;2023-03-01T05:27:53;-1.60;99.90
3996;DHT22;2012;49.794;9.722;2023-03-01T05:30:20;-1.50;99.90
3996;DHT22;2012;49.794;9.722;2023-03-01T05:32:50;-1.60;99.90
3996;DHT22;2012;49.794;9.722;2023-03-01T05:35:22;-1.60;99.90
3996;DHT22;2012;49.794;9.722;2023-03-01T05:37:49;-1.50;99.90
3996;DHT22;2012;49.794;9.722;2023-03-01T05:40:19;-1.60;99.90
3996;DHT22;2012;49.794;9.722;2023-03-01T05:42:48;-1.60;99.90
3996;DHT22;2012;49.794;9.722;2023-03-01T05:45:16;-1.60;99.90
3996;DHT22;2012;49.794;9.722;2023-03-01T05:47:45;-1.70;99.90
3996;DHT22;2012;49.794;9.722;2023-03-01T05:50:18;-1.60;99.90
3996;DHT22;2012;49.794;9.722;2023-03-01T05:52:50;-1.60;99.90
3996;DHT22;2012;49.794;9.722;2023-03-01T05:55:19;-1.60;99.90
3996;DHT22;2012;49.794;9.722;2023-03-01T05:57:47;-1.60;99.90
3996;DHT22;2012;49.794;9.722;2023-03-01T06:00:15;-1.60;99.90
3996;DHT22;2012;49.794;9.722;2023-03-01T06:02:42;-1.60;99.90
3996;DHT22;2012;49.794;9.722;2023-03-01T06:05:11;-1.60;99.90
3996;DHT22;2012;49.794;9.722;2023-03-01T06:07:38;-1.60;99.90
3996;DHT22;2012;49.794;9.722;2023-03-01T06:10:06;-1.60;99.90
3996;DHT22;2012;49.794;9.722;2023-03-01T06:12:34;-1.60;99.90
3996;DHT22;2012;49.794;9.722;2023-03-01T06:15:03;-1.80;99.90
3996;DHT22;2012;49.794;9.722;2023-03-01T06:17:32;-1.70;99.90
3996;DHT22;2012;49.794;9.722;2023-03-01T06:20:05;-1.60;99.90
3996;DHT22;2012;49.794;9.722;2023-03-01T06:22:32;-1.60;99.90
3996;DHT22;2012;49.794;9.722;2023-03-01T06:24:59;-1.60;99.90
3996;DHT22;2012;49.794;9.722;2023-03-01T06:27:26;-1.50;99.90
3996;DHT22;2012;49.794;9.722;2023-03-01T06:29:53;-1.50;99.90
3996;DHT22;2012;49.794;9.722;2023-03-01T06:32:20;-1.60;99.90
3996;DHT22;2012;49.794;9.722;2023-03-01T06:34:47;-1.60;99.90
3996;DHT22;2012;49.794;9.722;2023-03-01T06:37:13;-1.50;99.90
3996;DHT22;2012;49.794;9.722;2023-03-01T06:39:40;-1.40;99.90
3996;DHT22;2012;49.794;9.722;2023-03-01T06:42:08;-1.30;99.90
3996;DHT22;2012;49.794;9.722;2023-03-01T06:44:37;-1.20;99.90
3996;DHT22;2012;49.794;9.722;2023-03-01T06:47:04;-1.10;99.90
3996;DHT22;2012;49.794;9.722;2023-03-01T06:49:31;-1.10;99.90
3996;DHT22;2012;49.794;9.722;2023-03-01T06:51:57;-1.10;99.90
3996;DHT22;2012;49.794;9.722;2023-03-01T06:54:24;-1.00;99.90
3996;DHT22;2012;49.794;9.722;2023-03-01T06:56:51;-0.90;99.90
3996;DHT22;2012;49.794;9.722;2023-03-01T06:59:18;-0.90;99.90
3996;DHT22;2012;49.794;9.722;2023-03-01T07:01:44;-0.90;99.90
3996;DHT22;2012;49.794;9.722;2023-03-01T07:04:12;-0.80;99.90
3996;DHT22;2012;49.794;9.722;2023-03-01T07:06:39;-0.70;99.90
3996;DHT22;2012;49.794;9.722;2023-03-01T07:09:06;-0.60;99.90
3996;DHT22;2012;49.794;9.722;2023-03-01T07:11:32;-0.60;99.90
3996;DHT22;2012;49.794;9.722;2023-03-01T07:13:59;-0.50;99.90
3996;DHT22;2012;49.794;9.722;2023-03-01T07:16:26;-0.50;99.90
3996;DHT22;2012;49.794;9.722;2023-03-01T07:18:54;-0.40;99.90
3996;DHT22;2012;49.794;9.722;2023-03-01T07:21:21;-0.30;99.90
3996;DHT22;2012;49.794;9.722;2023-03-01T07:23:48;-0.20;99.90
3996;DHT22;2012;49.794;9.722;2023-03-01T07:26:15;-0.10;99.90
3996;DHT22;2012;49.794;9.722;2023-03-01T07:28:42;-0.10;99.90
3996;DHT22;2012;49.794;9.722;2023-03-01T07:31:09;0.00;99.90
3996;DHT22;2012;49.794;9.722;2023-03-01T07:33:35;0.10;99.90
3996;DHT22;2012;49.794;9.722;2023-03-01T07:36:03;0.10;99.90
3996;DHT22;2012;49.794;9.722;2023-03-01T07:38:31;0.20;99.90
3996;DHT22;2012;49.794;9.722;2023-03-01T07:41:00;0.20;99.90
3996;DHT22;2012;49.794;9.722;2023-03-01T07:43:28;0.20;99.90
3996;DHT22;2012;49.794;9.722;2023-03-01T07:46:00;0.30;99.90
3996;DHT22;2012;49.794;9.722;2023-03-01T07:48:28;0.20;99.90
3996;DHT22;2012;49.794;9.722;2023-03-01T07:51:01;0.40;99.90
3996;DHT22;2012;49.794;9.722;2023-03-01T07:53:28;0.50;99.90
3996;DHT22;2012;49.794;9.722;2023-03-01T07:56:07;0.60;99.90
3996;DHT22;2012;49.794;9.722;2023-03-01T07:58:35;0.70;99.90
3996;DHT22;2012;49.794;9.722;2023-03-01T08:01:04;0.60;99.90
3996;DHT22;2012;49.794;9.722;2023-03-01T08:03:31;0.70;99.90
3996;DHT22;2012;49.794;9.722;2023-03-01T08:06:02;0.70;99.90
3996;DHT22;2012;49.794;9.722;2023-03-01T08:08:29;0.80;99.90
3996;DHT22;2012;49.794;9.722;2023-03-01T08:10:57;0.80;99.90
3996;DHT22;2012;49.794;9.722;2023-03-01T08:13:25;0.90;99.90
3996;DHT22;2012;49.794;9.722;2023-03-01T08:15:52;1.10;99.90
3996;DHT22;2012;49.794;9.722;2023-03-01T08:18:20;1.10;99.90
3996;DHT22;2012;49.794;9.722;2023-03-01T08:20:47;1.40;99.90
3996;DHT22;2012;49.794;9.722;2023-03-01T08:23:14;1.50;99.90
3996;DHT22;2012;49.794;9.722;2023-03-01T08:25:41;1.50;99.90
3996;DHT22;2012;49.794;9.722;2023-03-01T08:28:07;1.50;99.90
3996;DHT22;2012;49.794;9.722;2023-03-01T08:30:34;1.60;99.90
3996;DHT22;2012;49.794;9.722;2023-03-01T08:33:01;1.70;99.90
3996;DHT22;2012;49.794;9.722;2023-03-01T08:35:27;1.80;99.90
3996;DHT22;2012;49.794;9.722;2023-03-01T08:37:54;1.80;99.90
3996;DHT22;2012;49.794;9.722;2023-03-01T08:40:21;2.10;99.90
3996;DHT22;2012;49.794;9.722;2023-03-01T08:42:48;2.00;99.90
3996;DHT22;2012;49.794;9.722;2023-03-01T08:45:15;2.20;99.90
3996;DHT22;2012;49.794;9.722;2023-03-01T08:47:44;2.30;99.90
3996;DHT22;2012;49.794;9.722;2023-03-01T08:50:11;2.30;99.90
3996;DHT22;2012;49.794;9.722;2023-03-01T08:52:38;2.30;99.90
3996;DHT22;2012;49.794;9.722;2023-03-01T08:55:06;2.40;99.90
3996;DHT22;2012;49.794;9.722;2023-03-01T08:57:33;2.50;99.90
3996;DHT22;2012;49.794;9.722;2023-03-01T08:59:59;2.60;99.90
3996;DHT22;2012;49.794;9.722;2023-03-01T09:02:26;2.60;99.90
3996;DHT22;2012;49.794;9.722;2023-03-01T09:04:53;2.70;99.90
3996;DHT22;2012;49.794;9.722;2023-03-01T09:07:20;2.70;99.90
3996;DHT22;2012;49.794;9.722;2023-03-01T09:09:46;2.70;99.90
3996;DHT22;2012;49.794;9.722;2023-03-01T09:12:13;2.90;99.90
3996;DHT22;2012;49.794;9.722;2023-03-01T09:14:40;3.00;99.90
3996;DHT22;2012;49.794;9.722;2023-03-01T09:17:07;3.10;99.90
3996;DHT22;2012;49.794;9.722;2023-03-01T09:19:34;3.40;99.90
3996;DHT22;2012;49.794;9.722;2023-03-01T09:22:03;3.30;99.90
3996;DHT22;2012;49.794;9.722;2023-03-01T09:24:30;3.40;99.90
3996;DHT22;2012;49.794;9.722;2023-03-01T09:26:57;3.30;99.90
3996;DHT22;2012;49.794;9.722;2023-03-01T09:29:24;3.60;99.90
3996;DHT22;2012;49.794;9.722;2023-03-01T09:31:52;3.60;99.90
3996;DHT22;2012;49.794;9.722;2023-03-01T09:34:22;3.80;99.90
3996;DHT22;2012;49.794;9.722;2023-03-01T09:36:50;3.90;99.90
3996;DHT22;2012;49.794;9.722;2023-03-01T09:39:18;4.00;99.90
3996;DHT22;2012;49.794;9.722;2023-03-01T09:41:54;4.10;99.90
3996;DHT22;2012;49.794;9.722;2023-03-01T09:44:41;4.10;99.90
3996;DHT22;2012;49.794;9.722;2023-03-01T09:47:20;4.30;99.90
3996;DHT22;2012;49.794;9.722;2023-03-01T09:50:12;4.30;99.90
3996;DHT22;2012;49.794;9.722;2023-03-01T09:55:16;4.50;99.90
3996;DHT22;2012;49.794;9.722;2023-03-01T09:57:55;4.60;99.90
3996;DHT22;2012;49.794;9.722;2023-03-01T10:00:25;4.80;99.90
3996;DHT22;2012;49.794;9.722;2023-03-01T10:06:01;5.00;99.90
3996;DHT22;2012;49.794;9.722;2023-03-01T10:08:41;5.20;99.90
3996;DHT22;2012;49.794;9.722;2023-03-01T10:11:25;5.10;99.90
3996;DHT22;2012;49.794;9.722;2023-03-01T10:16:48;5.10;99.90
3996;DHT22;2012;49.794;9.722;2023-03-01T10:19:41;5.40;99.90
3996;DHT22;2012;49.794;9.722;2023-03-01T10:22:27;5.50;99.90
3996;DHT22;2012;49.794;9.722;2023-03-01T10:24:58;5.50;99.90
3996;DHT22;2012;49.794;9.722;2023-03-01T10:30:10;5.70;99.80
3996;DHT22;2012;49.794;9.722;2023-03-01T10:32:40;5.70;99.90
3996;DHT22;2012;49.794;9.722;2023-03-01T10:35:18;5.90;99.90
3996;DHT22;2012;49.794;9.722;2023-03-01T10:38:02;6.00;99.00
3996;DHT22;2012;49.794;9.722;2023-03-01T10:40:30;6.10;98.20
3996;DHT22;2012;49.794;9.722;2023-03-01T10:42:58;6.20;97.90
3996;DHT22;2012;49.794;9.722;2023-03-01T10:48:19;6.50;98.50
3996;DHT22;2012;49.794;9.722;2023-03-01T10:50:49;6.90;99.30
3996;DHT22;2012;49.794;9.722;2023-03-01T10:56:00;6.90;96.50
3996;DHT22;2012;49.794;9.722;2023-03-01T10:58:28;6.60;95.60
3996;DHT22;2012;49.794;9.722;2023-03-01T11:01:01;6.50;96.00
3996;DHT22;2012;49.794;9.722;2023-03-01T11:03:34;6.70;96.10
3996;DHT22;2012;49.794;9.722;2023-03-01T11:08:39;7.00;94.90
3996;DHT22;2012;49.794;9.722;2023-03-01T11:11:36;7.20;95.40
3996;DHT22;2012;49.794;9.722;2023-03-01T11:14:20;7.10;94.50
3996;DHT22;2012;49.794;9.722;2023-03-01T11:19:38;7.60;94.70
3996;DHT22;2012;49.794;9.722;2023-03-01T11:22:07;7.60;94.30
3996;DHT22;2012;49.794;9.722;2023-03-01T11:24:51;7.60;93.10
3996;DHT22;2012;49.794;9.722;2023-03-01T11:27:40;7.80;93.80
3996;DHT22;2012;49.794;9.722;2023-03-01T11:35:37;8.30;91.90
3996;DHT22;2012;49.794;9.722;2023-03-01T11:38:24;8.30;91.80
3996;DHT22;2012;49.794;9.722;2023-03-01T11:41:14;8.30;91.40
3996;DHT22;2012;49.794;9.722;2023-03-01T12:00:19;8.90;87.50
3996;DHT22;2012;49.794;9.722;2023-03-01T12:06:14;9.10;86.90
3996;DHT22;2012;49.794;9.722;2023-03-01T12:23:26;9.70;84.70
3996;DHT22;2012;49.794;9.722;2023-03-01T12:31:40;9.90;79.50
3996;DHT22;2012;49.794;9.722;2023-03-01T12:34:25;9.90;80.20
3996;DHT22;2012;49.794;9.722;2023-03-01T12:37:24;9.80;79.50
3996;DHT22;2012;49.794;9.722;2023-03-01T12:43:06;10.10;80.60
3996;DHT22;2012;49.794;9.722;2023-03-01T12:50:53;11.10;85.30
3996;DHT22;2012;49.794;9.722;2023-03-01T12:55:53;10.30;78.20
3996;DHT22;2012;49.794;9.722;2023-03-01T13:01:36;10.30;77.20
3996;DHT22;2012;49.794;9.722;2023-03-01T13:09:38;10.80;74.00
3996;DHT22;2012;49.794;9.722;2023-03-01T13:15:37;10.60;72.60
3996;DHT22;2012;49.794;9.722;2023-03-01T13:26:05;11.30;73.10
3996;DHT22;2012;49.794;9.722;2023-03-01T13:31:05;11.50;75.50
3996;DHT22;2012;49.794;9.722;2023-03-01T13:36:03;11.60;75.90
3996;DHT22;2012;49.794;9.722;2023-03-01T13:46:57;11.80;74.30
3996;DHT22;2012;49.794;9.722;2023-03-01T13:49:28;12.00;72.40
3996;DHT22;2012;49.794;9.722;2023-03-01T13:52:30;11.90;70.30
3996;DHT22;2012;49.794;9.722;2023-03-01T13:54:59;11.60;69.30
3996;DHT22;2012;49.794;9.722;2023-03-01T13:57:33;11.60;69.70
3996;DHT22;2012;49.794;9.722;2023-03-01T14:00:00;11.70;69.30
3996;DHT22;2012;49.794;9.722;2023-03-01T14:02:27;11.60;68.30
3996;DHT22;2012;49.794;9.722;2023-03-01T14:04:58;11.40;69.00
3996;DHT22;2012;49.794;9.722;2023-03-01T14:07:27;11.70;69.70
3996;DHT22;2012;49.794;9.722;2023-03-01T14:10:00;12.10;69.30
3996;DHT22;2012;49.794;9.722;2023-03-01T14:12:55;11.80;69.40
3996;DHT22;2012;49.794;9.722;2023-03-01T14:18:53;11.60;69.00
3996;DHT22;2012;49.794;9.722;2023-03-01T14:21:22;11.60;69.30
3996;DHT22;2012;49.794;9.722;2023-03-01T14:23:49;11.70;69.40
3996;DHT22;2012;49.794;9.722;2023-03-01T14:26:22;11.60;68.20
3996;DHT22;2012;49.794;9.722;2023-03-01T14:28:50;11.40;67.70
3996;DHT22;2012;49.794;9.722;2023-03-01T14:31:34;11.40;68.40
3996;DHT22;2012;49.794;9.722;2023-03-01T14:34:22;11.40;68.20
3996;DHT22;2012;49.794;9.722;2023-03-01T14:36:50;11.40;68.90
3996;DHT22;2012;49.794;9.722;2023-03-01T14:39:24;11.20;69.60
3996;DHT22;2012;49.794;9.722;2023-03-01T14:41:51;11.30;67.80
3996;DHT22;2012;49.794;9.722;2023-03-01T14:44:23;11.00;67.80
3996;DHT22;2012;49.794;9.722;2023-03-01T14:46:55;11.20;69.30
3996;DHT22;2012;49.794;9.722;2023-03-01T14:49:29;11.10;68.40
3996;DHT22;2012;49.794;9.722;2023-03-01T14:52:02;11.00;69.50
3996;DHT22;2012;49.794;9.722;2023-03-01T14:54:51;11.30;69.90
3996;DHT22;2012;49.794;9.722;2023-03-01T14:57:22;11.10;70.40
3996;DHT22;2012;49.794;9.722;2023-03-01T14:59:50;11.40;70.10
3996;DHT22;2012;49.794;9.722;2023-03-01T15:02:21;11.10;69.00
3996;DHT22;2012;49.794;9.722;2023-03-01T15:04:52;11.00;68.80
3996;DHT22;2012;49.794;9.722;2023-03-01T15:07:31;10.90;68.90
3996;DHT22;2012;49.794;9.722;2023-03-01T15:10:00;10.60;70.20
3996;DHT22;2012;49.794;9.722;2023-03-01T15:14:56;10.90;70.90
3996;DHT22;2012;49.794;9.722;2023-03-01T15:17:33;11.00;71.30
3996;DHT22;2012;49.794;9.722;2023-03-01T15:20:17;10.80;70.30
3996;DHT22;2012;49.794;9.722;2023-03-01T15:22:45;10.80;70.70
3996;DHT22;2012;49.794;9.722;2023-03-01T15:25:19;10.70;70.70
3996;DHT22;2012;49.794;9.722;2023-03-01T15:27:49;10.60;71.20
3996;DHT22;2012;49.794;9.722;2023-03-01T15:30:25;10.60;71.30
3996;DHT22;2012;49.794;9.722;2023-03-01T15:33:17;10.50;71.20
3996;DHT22;2012;49.794;9.722;2023-03-01T15:35:48;10.40;72.00
3996;DHT22;2012;49.794;9.722;2023-03-01T15:38:28;10.50;71.90
3996;DHT22;2012;49.794;9.722;2023-03-01T15:40:57;10.40;72.00
3996;DHT22;2012;49.794;9.722;2023-03-01T15:43:44;10.50;72.50
3996;DHT22;2012;49.794;9.722;2023-03-01T15:46:24;10.70;73.20
3996;DHT22;2012;49.794;9.722;2023-03-01T15:49:03;10.40;73.40
3996;DHT22;2012;49.794;9.722;2023-03-01T15:51:35;10.00;72.20
3996;DHT22;2012;49.794;9.722;2023-03-01T15:54:12;9.90;73.70
3996;DHT22;2012;49.794;9.722;2023-03-01T15:56:40;9.70;74.70
3996;DHT22;2012;49.794;9.722;2023-03-01T15:59:10;9.60;74.90
3996;DHT22;2012;49.794;9.722;2023-03-01T16:01:38;9.50;74.50
3996;DHT22;2012;49.794;9.722;2023-03-01T16:04:05;9.70;75.30
3996;DHT22;2012;49.794;9.722;2023-03-01T16:06:32;9.60;75.30
3996;DHT22;2012;49.794;9.722;2023-03-01T16:08:59;9.60;75.00
3996;DHT22;2012;49.794;9.722;2023-03-01T16:11:26;9.60;76.00
3996;DHT22;2012;49.794;9.722;2023-03-01T16:13:53;9.40;76.50
3996;DHT22;2012;49.794;9.722;2023-03-01T16:16:20;9.30;76.40
3996;DHT22;2012;49.794;9.722;2023-03-01T16:18:47;9.40;77.20
3996;DHT22;2012;49.794;9.722;2023-03-01T16:21:23;9.30;75.70
3996;DHT22;2012;49.794;9.722;2023-03-01T16:23:50;9.20;77.30
3996;DHT22;2012;49.794;9.722;2023-03-01T16:26:18;8.90;77.30
3996;DHT22;2012;49.794;9.722;2023-03-01T16:28:56;9.00;79.00
3996;DHT22;2012;49.794;9.722;2023-03-01T16:31:24;9.00;78.60
3996;DHT22;2012;49.794;9.722;2023-03-01T16:33:54;8.70;78.50
3996;DHT22;2012;49.794;9.722;2023-03-01T16:36:22;8.60;78.90
3996;DHT22;2012;49.794;9.722;2023-03-01T16:38:51;8.70;80.30
3996;DHT22;2012;49.794;9.722;2023-03-01T16:41:21;8.30;80.50
3996;DHT22;2012;49.794;9.722;2023-03-01T16:43:48;8.50;81.40
3996;DHT22;2012;49.794;9.722;2023-03-01T16:46:18;8.40;81.30
3996;DHT22;2012;49.794;9.722;2023-03-01T16:48:45;8.30;81.10
3996;DHT22;2012;49.794;9.722;2023-03-01T16:51:13;8.40;81.60
3996;DHT22;2012;49.794;9.722;2023-03-01T16:53:40;8.30;82.40
3996;DHT22;2012;49.794;9.722;2023-03-01T16:56:09;8.30;82.70
3996;DHT22;2012;49.794;9.722;2023-03-01T16:58:37;8.10;83.40
3996;DHT22;2012;49.794;9.722;2023-03-01T17:01:15;8.00;84.50
3996;DHT22;2012;49.794;9.722;2023-03-01T17:03:43;7.90;84.30
3996;DHT22;2012;49.794;9.722;2023-03-01T17:06:13;7.90;85.70
3996;DHT22;2012;49.794;9.722;2023-03-01T17:08:40;7.80;86.10
3996;DHT22;2012;49.794;9.722;2023-03-01T17:11:14;7.50;86.40
3996;DHT22;2012;49.794;9.722;2023-03-01T17:13:41;7.70;87.00
3996;DHT22;2012;49.794;9.722;2023-03-01T17:16:12;7.60;86.90
3996;DHT22;2012;49.794;9.722;2023-03-01T17:18:39;7.60;87.20
3996;DHT22;2012;49.794;9.722;2023-03-01T17:21:07;7.40;87.90
3996;DHT22;2012;49.794;9.722;2023-03-01T17:23:36;7.60;88.20
3996;DHT22;2012;49.794;9.722;2023-03-01T17:26:03;7.50;87.70
3996;DHT22;2012;49.794;9.722;2023-03-01T17:28:31;7.40;88.30
3996;DHT22;2012;49.794;9.722;2023-03-01T17:31:03;7.40;89.00
3996;DHT22;2012;49.794;9.722;2023-03-01T17:33:30;7.20;89.20
3996;DHT22;2012;49.794;9.722;2023-03-01T17:35:58;7.10;89.70
3996;DHT22;2012;49.794;9.722;2023-03-01T17:38:26;7.10;90.00
3996;DHT22;2012;49.794;9.722;2023-03-01T17:40:53;7.10;90.40
3996;DHT22;2012;49.794;9.722;2023-03-01T17:43:20;6.90;90.60
3996;DHT22;2012;49.794;9.722;2023-03-01T17:45:47;6.90;90.80
3996;DHT22;2012;49.794;9.722;2023-03-01T17:48:16;6.80;90.70
3996;DHT22;2012;49.794;9.722;2023-03-01T17:50:43;6.80;91.00
3996;DHT22;2012;49.794;9.722;2023-03-01T17:53:10;6.90;91.20
3996;DHT22;2012;49.794;9.722;2023-03-01T17:55:38;6.90;91.30
3996;DHT22;2012;49.794;9.722;2023-03-01T17:58:06;6.90;91.40
3996;DHT22;2012;49.794;9.722;2023-03-01T18:00:33;6.90;91.60
3996;DHT22;2012;49.794;9.722;2023-03-01T18:03:00;6.80;91.40
3996;DHT22;2012;49.794;9.722;2023-03-01T18:05:34;6.80;91.90
3996;DHT22;2012;49.794;9.722;2023-03-01T18:08:01;6.80;92.00
3996;DHT22;2012;49.794;9.722;2023-03-01T18:10:28;6.60;92.00
3996;DHT22;2012;49.794;9.722;2023-03-01T18:12:54;6.40;92.20
3996;DHT22;2012;49.794;9.722;2023-03-01T18:15:22;6.50;92.70
3996;DHT22;2012;49.794;9.722;2023-03-01T18:17:49;6.50;92.70
3996;DHT22;2012;49.794;9.722;2023-03-01T18:20:16;6.40;93.00
3996;DHT22;2012;49.794;9.722;2023-03-01T18:22:43;6.30;93.40
3996;DHT22;2012;49.794;9.722;2023-03-01T18:25:11;6.20;93.50
3996;DHT22;2012;49.794;9.722;2023-03-01T18:27:37;6.40;93.90
3996;DHT22;2012;49.794;9.722;2023-03-01T18:30:06;6.30;93.70
3996;DHT22;2012;49.794;9.722;2023-03-01T18:32:33;6.40;94.30
3996;DHT22;2012;49.794;9.722;2023-03-01T18:35:00;6.20;93.90
3996;DHT22;2012;49.794;9.722;2023-03-01T18:37:26;6.20;94.40
3996;DHT22;2012;49.794;9.722;2023-03-01T18:39:54;6.20;94.50
3996;DHT22;2012;49.794;9.722;2023-03-01T18:42:21;6.10;95.00
3996;DHT22;2012;49.794;9.722;2023-03-01T18:44:48;6.10;94.80
3996;DHT22;2012;49.794;9.722;2023-03-01T18:47:15;6.10;95.00